首页
METAR-TAF:

METAR-TAF

机场 :

Resolute, 努那武特, 加拿大

纬度: 74-43N, 经度: 094-59W, 海拔: 67米

当前天气观测

该预报发布于19分钟前的13:00 UTC
风速2节,风向东转东北
温度 -8°C
湿度 85%
气压 1017 hPa
能見度: 12.9公里
多云层高于15000英尺

METAR: CYRB 281300Z 07002KT 8SM BKN150 M08/M10 A3003 RMK AC5 SLP180

时间: 08:19 (13:19 UTC)

预报

该预报发布于53分钟前的12:26 UTC
预报有效从28日的 12点(UTC)到 29日的 12点(UTC)
风速5节,风向北转东北
能見度: 0.4公里
层高于200英尺
冻雾
短暂存在
从 28日的 12点(UTC)到 28日的 18点(UTC)
能見度: 10公里
散云层高于200英尺
成为
从 28日的 14点(UTC)到 28日的 16点(UTC)
风速7节,风向
从 28日的 1800点(UTC)
风速10节,风向
能見度: 10公里
多云层高于1000英尺
短暂存在
从 28日的 18点(UTC)到 29日的 12点(UTC)
能見度: 3.2公里
阴天层高于400英尺
轻雾

TAF: CYRB 281226Z 2812/2912 03005KT 1/4SM FZFG VV002 TEMPO 2812/2818 P6SM NSW SCT002 BECMG 2814/2816 09007KT FM281800 09010KT P6SM BKN010 TEMPO 2818/2912 2SM BR OVC004 RMK NXT FCST BY 281800Z

超过4000个机场的气象观测和天气预报(METAR&TAF报告)。

可查询的气象台以黄色和红色小点在地图上表示。

将鼠标移到小点上方,可查看气象台名称。

然后点击查看天气观测和预报。

如需切换地图:点击带黑十字的绿色按钮放大地图;点击带横线的绿色按钮缩小地图;或者点击绿色箭头查看邻近地区的地图。


METAR-TAF: